Terminal Aerodrome Forecast
Issued by NWS

Home | Current Version | Previous Version | Text Only | Print | Product List | Glossary On
Versions: 1 2 3 4 5 6 7 8 9 10 11 12 13 14 15 16 17 18 19 20 21 22 23 24 25 26 27
000
FTUS41 KPBZ 251736
TAFMGW
TAF
KMGW 251736Z 2518/2618 29012G18KT P6SM SCT025 OVC030
     FM251900 25014G20KT P6SM FEW025 BKN250
     FM252300 26009KT P6SM BKN250
     FM260500 27005KT P6SM SCT250=

USA.gov is the U.S. government's official web portal to all federal, state and local government web resources and services.